sensor_id;sensor_type;location;lat;lon;timestamp;pressure;altitude;pressure_sealevel;temperature;humidity
75972;BME280;64651;47.540;19.088;2023-12-04T00:01:02;101279.84;;;24.69;32.34
75972;BME280;64651;47.540;19.088;2023-12-04T00:06:05;101273.06;;;24.70;32.44
75972;BME280;64651;47.540;19.088;2023-12-04T00:11:07;101268.59;;;24.69;32.53
75972;BME280;64651;47.540;19.088;2023-12-04T00:16:10;101265.44;;;24.70;32.62
75972;BME280;64651;47.540;19.088;2023-12-04T00:21:12;101266.22;;;24.71;32.59
75972;BME280;64651;47.540;19.088;2023-12-04T00:26:15;101275.03;;;24.69;32.60
75972;BME280;64651;47.540;19.088;2023-12-04T00:31:17;101269.41;;;24.69;32.59
75972;BME280;64651;47.540;19.088;2023-12-04T00:36:19;101266.12;;;24.67;32.53
75972;BME280;64651;47.540;19.088;2023-12-04T00:41:21;101263.66;;;24.65;32.53
75972;BME280;64651;47.540;19.088;2023-12-04T00:46:23;101257.19;;;24.65;32.52
75972;BME280;64651;47.540;19.088;2023-12-04T00:51:26;101260.00;;;24.65;32.48
75972;BME280;64651;47.540;19.088;2023-12-04T00:56:28;101276.91;;;24.65;32.40
75972;BME280;64651;47.540;19.088;2023-12-04T01:01:30;101284.53;;;24.64;32.39
75972;BME280;64651;47.540;19.088;2023-12-04T01:06:33;101274.91;;;24.65;32.38
75972;BME280;64651;47.540;19.088;2023-12-04T01:11:35;101266.84;;;24.64;32.33
75972;BME280;64651;47.540;19.088;2023-12-04T01:16:38;101263.22;;;24.63;32.31
75972;BME280;64651;47.540;19.088;2023-12-04T01:21:42;101264.81;;;24.64;32.28
75972;BME280;64651;47.540;19.088;2023-12-04T01:26:44;101257.56;;;24.63;32.26
75972;BME280;64651;47.540;19.088;2023-12-04T01:31:46;101265.19;;;24.63;32.21
75972;BME280;64651;47.540;19.088;2023-12-04T01:36:48;101269.66;;;24.64;32.21
75972;BME280;64651;47.540;19.088;2023-12-04T01:41:50;101265.19;;;24.63;32.17
75972;BME280;64651;47.540;19.088;2023-12-04T01:46:52;101278.44;;;24.62;32.24
75972;BME280;64651;47.540;19.088;2023-12-04T01:51:55;101270.00;;;24.62;32.27
75972;BME280;64651;47.540;19.088;2023-12-04T01:56:58;101267.63;;;24.64;32.31
75972;BME280;64651;47.540;19.088;2023-12-04T02:02:00;101270.81;;;24.63;32.26
75972;BME280;64651;47.540;19.088;2023-12-04T02:07:04;101270.81;;;24.63;32.35
75972;BME280;64651;47.540;19.088;2023-12-04T02:12:06;101278.44;;;24.62;32.33
75972;BME280;64651;47.540;19.088;2023-12-04T02:17:09;101292.53;;;24.62;32.26
75972;BME280;64651;47.540;19.088;2023-12-04T02:22:13;101282.78;;;24.60;32.27
75972;BME280;64651;47.540;19.088;2023-12-04T02:27:25;101277.16;;;24.60;32.28
75972;BME280;64651;47.540;19.088;2023-12-04T02:32:31;101290.06;;;24.61;32.25
75972;BME280;64651;47.540;19.088;2023-12-04T02:37:34;101282.78;;;24.60;32.23
75972;BME280;64651;47.540;19.088;2023-12-04T02:42:37;101281.94;;;24.59;32.20
75972;BME280;64651;47.540;19.088;2023-12-04T02:47:39;101296.38;;;24.58;32.17
75972;BME280;64651;47.540;19.088;2023-12-04T02:52:41;101287.59;;;24.59;32.13
75972;BME280;64651;47.540;19.088;2023-12-04T02:57:44;101288.75;;;24.58;32.14
75972;BME280;64651;47.540;19.088;2023-12-04T03:02:46;101289.94;;;24.57;32.06
75972;BME280;64651;47.540;19.088;2023-12-04T03:07:48;101289.12;;;24.57;31.95
75972;BME280;64651;47.540;19.088;2023-12-04T03:12:50;101297.19;;;24.58;31.99
75972;BME280;64651;47.540;19.088;2023-12-04T03:17:52;101302.00;;;24.58;31.92
75972;BME280;64651;47.540;19.088;2023-12-04T03:22:55;101304.81;;;24.58;31.85
75972;BME280;64651;47.540;19.088;2023-12-04T03:27:57;101303.19;;;24.57;31.81
75972;BME280;64651;47.540;19.088;2023-12-04T03:32:59;101300.72;;;24.55;31.80
75972;BME280;64651;47.540;19.088;2023-12-04T03:38:01;101302.72;;;24.55;31.76
75972;BME280;64651;47.540;19.088;2023-12-04T03:43:03;101308.81;;;24.57;31.78
75972;BME280;64651;47.540;19.088;2023-12-04T03:48:05;101319.59;;;24.55;31.58
75972;BME280;64651;47.540;19.088;2023-12-04T03:53:07;101311.97;;;24.55;31.76
75972;BME280;64651;47.540;19.088;2023-12-04T03:58:10;101316.44;;;24.56;31.74
75972;BME280;64651;47.540;19.088;2023-12-04T04:03:12;101324.41;;;24.54;31.74
75972;BME280;64651;47.540;19.088;2023-12-04T04:08:14;101322.06;;;24.56;31.74
75972;BME280;64651;47.540;19.088;2023-12-04T04:13:16;101304.72;;;24.54;31.77
75972;BME280;64651;47.540;19.088;2023-12-04T04:18:19;101310.00;;;24.56;31.76
75972;BME280;64651;47.540;19.088;2023-12-04T04:23:21;101297.91;;;24.55;31.78
75972;BME280;64651;47.540;19.088;2023-12-04T04:28:23;101306.34;;;24.55;31.79
75972;BME280;64651;47.540;19.088;2023-12-04T04:33:25;101297.91;;;24.55;31.86
75972;BME280;64651;47.540;19.088;2023-12-04T04:38:28;101296.25;;;24.54;31.87
75972;BME280;64651;47.540;19.088;2023-12-04T04:43:31;101289.00;;;24.53;31.87
75972;BME280;64651;47.540;19.088;2023-12-04T04:48:35;101299.91;;;24.55;31.88
75972;BME280;64651;47.540;19.088;2023-12-04T04:53:38;101299.09;;;24.54;31.86
75972;BME280;64651;47.540;19.088;2023-12-04T04:58:40;101311.50;;;24.53;31.70
75972;BME280;64651;47.540;19.088;2023-12-04T05:03:42;101299.09;;;24.54;31.73
75972;BME280;64651;47.540;19.088;2023-12-04T05:08:45;101298.59;;;24.52;31.68
75972;BME280;64651;47.540;19.088;2023-12-04T05:13:47;101315.63;;;24.56;31.66
75972;BME280;64651;47.540;19.088;2023-12-04T05:18:49;101313.50;;;24.53;31.61
75972;BME280;64651;47.540;19.088;2023-12-04T05:23:52;101323.59;;;24.54;31.55
75972;BME280;64651;47.540;19.088;2023-12-04T05:28:54;101324.41;;;24.54;31.51
75972;BME280;64651;47.540;19.088;2023-12-04T05:33:56;101316.78;;;24.55;31.44
75972;BME280;64651;47.540;19.088;2023-12-04T05:38:58;101315.13;;;24.54;31.38
75972;BME280;64651;47.540;19.088;2023-12-04T05:44:02;101321.94;;;24.53;31.34
75972;BME280;64651;47.540;19.088;2023-12-04T05:49:05;101318.28;;;24.52;31.32
75972;BME280;64651;47.540;19.088;2023-12-04T05:54:07;101321.94;;;24.53;31.28
75972;BME280;64651;47.540;19.088;2023-12-04T05:59:10;101319.50;;;24.51;31.28
75972;BME280;64651;47.540;19.088;2023-12-04T06:04:12;101324.31;;;24.51;31.30
75972;BME280;64651;47.540;19.088;2023-12-04T06:09:14;101329.94;;;24.51;31.26
75972;BME280;64651;47.540;19.088;2023-12-04T06:14:18;101329.09;;;24.50;31.22
75972;BME280;64651;47.540;19.088;2023-12-04T06:19:20;101325.13;;;24.51;31.22
75972;BME280;64651;47.540;19.088;2023-12-04T06:24:23;101336.72;;;24.50;31.23
75972;BME280;64651;47.540;19.088;2023-12-04T06:29:26;101336.00;;;24.53;31.20
75972;BME280;64651;47.540;19.088;2023-12-04T06:34:28;101325.91;;;23.82;27.81
75972;BME280;64651;47.540;19.088;2023-12-04T06:39:32;101343.62;;;22.62;26.61
75972;BME280;64651;47.540;19.088;2023-12-04T06:44:35;101360.16;;;22.00;25.76
75972;BME280;64651;47.540;19.088;2023-12-04T06:49:37;101349.22;;;22.62;27.55
75972;BME280;64651;47.540;19.088;2023-12-04T06:54:40;101357.84;;;23.16;28.19
75972;BME280;64651;47.540;19.088;2023-12-04T06:59:42;101354.84;;;23.41;28.31
75972;BME280;64651;47.540;19.088;2023-12-04T07:04:44;101354.72;;;23.59;28.41
75972;BME280;64651;47.540;19.088;2023-12-04T07:09:47;101352.31;;;23.69;28.67
75972;BME280;64651;47.540;19.088;2023-12-04T07:14:50;101363.00;;;23.76;28.67
75972;BME280;64651;47.540;19.088;2023-12-04T07:19:52;101359.28;;;23.84;28.67
75972;BME280;64651;47.540;19.088;2023-12-04T07:24:54;101365.50;;;23.90;28.75
75972;BME280;64651;47.540;19.088;2023-12-04T07:29:57;101365.28;;;23.95;28.73
75972;BME280;64651;47.540;19.088;2023-12-04T07:34:59;101361.78;;;23.98;28.82
75972;BME280;64651;47.540;19.088;2023-12-04T07:40:01;101364.72;;;24.01;28.83
75972;BME280;64651;47.540;19.088;2023-12-04T07:45:04;101370.81;;;24.03;28.79
75972;BME280;64651;47.540;19.088;2023-12-04T07:50:07;101375.41;;;24.08;28.82
75972;BME280;64651;47.540;19.088;2023-12-04T07:55:09;101376.69;;;24.10;28.75
75972;BME280;64651;47.540;19.088;2023-12-04T08:00:12;101371.56;;;24.12;28.81
75972;BME280;64651;47.540;19.088;2023-12-04T08:05:14;101384.12;;;24.15;28.80
75972;BME280;64651;47.540;19.088;2023-12-04T08:10:16;101378.94;;;24.17;28.77
75972;BME280;64651;47.540;19.088;2023-12-04T08:15:19;101377.13;;;24.21;28.77
75972;BME280;64651;47.540;19.088;2023-12-04T08:20:21;101371.97;;;24.23;28.77
75972;BME280;64651;47.540;19.088;2023-12-04T08:25:37;101376.41;;;24.24;28.74
75972;BME280;64651;47.540;19.088;2023-12-04T08:30:41;101383.81;;;24.29;28.71
75972;BME280;64651;47.540;19.088;2023-12-04T08:35:43;101387.09;;;24.31;28.74
75972;BME280;64651;47.540;19.088;2023-12-04T08:40:45;101386.75;;;24.32;28.70
75972;BME280;64651;47.540;19.088;2023-12-04T08:45:47;101372.69;;;24.32;28.73
75972;BME280;64651;47.540;19.088;2023-12-04T08:50:50;101379.25;;;24.36;28.66
75972;BME280;64651;47.540;19.088;2023-12-04T08:55:52;101370.47;;;24.38;28.69
75972;BME280;64651;47.540;19.088;2023-12-04T09:00:54;101375.75;;;24.39;28.66
75972;BME280;64651;47.540;19.088;2023-12-04T09:05:57;101368.25;;;24.43;28.61
75972;BME280;64651;47.540;19.088;2023-12-04T09:11:00;101375.63;;;24.48;28.42
75972;BME280;64651;47.540;19.088;2023-12-04T09:16:21;101375.78;;;24.51;28.48
75972;BME280;64651;47.540;19.088;2023-12-04T09:21:23;101373.06;;;24.55;28.39
75972;BME280;64651;47.540;19.088;2023-12-04T09:26:25;101384.56;;;24.62;28.33
75972;BME280;64651;47.540;19.088;2023-12-04T09:31:27;101374.59;;;24.64;28.28
75972;BME280;64651;47.540;19.088;2023-12-04T09:36:30;101368.28;;;24.67;28.16
75972;BME280;64651;47.540;19.088;2023-12-04T09:41:33;101362.75;;;24.71;28.12
75972;BME280;64651;47.540;19.088;2023-12-04T09:46:35;101346.34;;;24.73;28.05
75972;BME280;64651;47.540;19.088;2023-12-04T09:51:38;101343.28;;;24.78;27.80
75972;BME280;64651;47.540;19.088;2023-12-04T09:56:40;101331.94;;;24.99;27.62
75972;BME280;64651;47.540;19.088;2023-12-04T10:01:43;101328.81;;;25.28;27.47
75972;BME280;64651;47.540;19.088;2023-12-04T10:06:49;101321.22;;;25.57;27.42
75972;BME280;64651;47.540;19.088;2023-12-04T10:11:55;101317.09;;;25.82;27.29
75972;BME280;64651;47.540;19.088;2023-12-04T10:16:58;101312.97;;;26.07;27.21
75972;BME280;64651;47.540;19.088;2023-12-04T10:22:01;101300.09;;;26.38;26.98
75972;BME280;64651;47.540;19.088;2023-12-04T10:27:06;101280.19;;;26.65;26.78
75972;BME280;64651;47.540;19.088;2023-12-04T10:32:11;101289.28;;;26.90;26.62
75972;BME280;64651;47.540;19.088;2023-12-04T10:37:14;101279.72;;;27.14;26.47
75972;BME280;64651;47.540;19.088;2023-12-04T10:42:28;101270.16;;;27.38;26.27
75972;BME280;64651;47.540;19.088;2023-12-04T10:47:33;101262.88;;;27.56;26.12
75972;BME280;64651;47.540;19.088;2023-12-04T10:52:38;101258.81;;;27.76;25.96
75972;BME280;64651;47.540;19.088;2023-12-04T10:57:43;101252.75;;;27.97;25.76
75972;BME280;64651;47.540;19.088;2023-12-04T11:02:46;101255.44;;;28.13;25.63
75972;BME280;64651;47.540;19.088;2023-12-04T11:07:53;101240.78;;;28.30;25.49
75972;BME280;64651;47.540;19.088;2023-12-04T11:13:25;101237.00;;;28.45;25.28
75972;BME280;64651;47.540;19.088;2023-12-04T11:18:31;101222.25;;;28.59;25.14
75972;BME280;64651;47.540;19.088;2023-12-04T11:23:35;101215.41;;;28.63;25.03
75972;BME280;64651;47.540;19.088;2023-12-04T11:28:38;101218.28;;;28.67;25.01
75972;BME280;64651;47.540;19.088;2023-12-04T11:33:41;101197.22;;;28.64;25.03
75972;BME280;64651;47.540;19.088;2023-12-04T11:38:45;101198.09;;;28.69;25.01
75972;BME280;64651;47.540;19.088;2023-12-04T11:43:52;101183.19;;;28.72;25.00
75972;BME280;64651;47.540;19.088;2023-12-04T11:49:41;101177.03;;;28.66;25.09
75972;BME280;64651;47.540;19.088;2023-12-04T11:54:20;101170.16;;;28.67;25.02
75972;BME280;64651;47.540;19.088;2023-12-04T11:59:27;101166.19;;;28.72;24.91
75972;BME280;64651;47.540;19.088;2023-12-04T12:04:29;101171.91;;;28.75;24.87
75972;BME280;64651;47.540;19.088;2023-12-04T12:09:34;101166.81;;;28.88;24.54
75972;BME280;64651;47.540;19.088;2023-12-04T12:14:36;101161.34;;;29.02;24.31
75972;BME280;64651;47.540;19.088;2023-12-04T12:19:38;101152.03;;;29.05;24.36
75972;BME280;64651;47.540;19.088;2023-12-04T12:24:40;101137.03;;;29.01;24.30
75972;BME280;64651;47.540;19.088;2023-12-04T12:29:43;101128.56;;;29.04;24.22
75972;BME280;64651;47.540;19.088;2023-12-04T12:34:45;101112.34;;;29.01;24.34
75972;BME280;64651;47.540;19.088;2023-12-04T12:39:48;101100.53;;;28.96;24.38
75972;BME280;64651;47.540;19.088;2023-12-04T12:44:50;101094.53;;;28.71;24.36
75972;BME280;64651;47.540;19.088;2023-12-04T12:49:52;101085.28;;;28.44;24.51
75972;BME280;64651;47.540;19.088;2023-12-04T12:54:55;101085.44;;;28.25;24.66
75972;BME280;64651;47.540;19.088;2023-12-04T12:59:57;101087.59;;;28.09;24.80
75972;BME280;64651;47.540;19.088;2023-12-04T13:05:00;101093.69;;;27.84;24.85
75972;BME280;64651;47.540;19.088;2023-12-04T13:10:03;101079.19;;;27.63;24.96
75972;BME280;64651;47.540;19.088;2023-12-04T13:15:07;101074.47;;;27.48;25.03
75972;BME280;64651;47.540;19.088;2023-12-04T13:20:10;101083.88;;;27.33;25.15
75972;BME280;64651;47.540;19.088;2023-12-04T13:25:16;101076.00;;;27.19;25.19
75972;BME280;64651;47.540;19.088;2023-12-04T13:30:18;101076.97;;;27.08;25.44
75972;BME280;64651;47.540;19.088;2023-12-04T13:35:21;101077.22;;;26.99;25.85
75972;BME280;64651;47.540;19.088;2023-12-04T13:40:25;101076.63;;;26.90;26.03
75972;BME280;64651;47.540;19.088;2023-12-04T13:45:34;101067.91;;;26.79;26.24
75972;BME280;64651;47.540;19.088;2023-12-04T13:50:37;101058.78;;;26.66;26.33
75972;BME280;64651;47.540;19.088;2023-12-04T13:55:39;101056.94;;;26.55;26.49
75972;BME280;64651;47.540;19.088;2023-12-04T14:01:05;101051.53;;;26.46;26.56
75972;BME280;64651;47.540;19.088;2023-12-04T14:06:23;101049.28;;;26.36;26.63
75972;BME280;64651;47.540;19.088;2023-12-04T14:11:26;101043.47;;;26.29;26.68
75972;BME280;64651;47.540;19.088;2023-12-04T14:16:30;101046.59;;;26.24;26.64
75972;BME280;64651;47.540;19.088;2023-12-04T14:21:32;101054.47;;;25.99;27.03
75972;BME280;64651;47.540;19.088;2023-12-04T14:26:34;101059.75;;;26.01;26.99
75972;BME280;64651;47.540;19.088;2023-12-04T14:31:36;101046.75;;;25.96;26.97
75972;BME280;64651;47.540;19.088;2023-12-04T14:36:39;101035.38;;;25.93;26.98
75972;BME280;64651;47.540;19.088;2023-12-04T14:41:41;101028.03;;;25.88;27.04
75972;BME280;64651;47.540;19.088;2023-12-04T14:46:43;101027.50;;;25.82;27.09
75972;BME280;64651;47.540;19.088;2023-12-04T14:51:47;101014.03;;;25.76;27.13
75972;BME280;64651;47.540;19.088;2023-12-04T14:56:50;101004.69;;;25.72;27.21
75972;BME280;64651;47.540;19.088;2023-12-04T15:02:28;101013.88;;;25.69;27.20
75972;BME280;64651;47.540;19.088;2023-12-04T15:07:51;101015.00;;;25.49;27.45
75972;BME280;64651;47.540;19.088;2023-12-04T15:13:16;101012.41;;;25.43;27.45
75972;BME280;64651;47.540;19.088;2023-12-04T15:18:37;101014.25;;;25.52;27.37
75972;BME280;64651;47.540;19.088;2023-12-04T15:23:45;101008.59;;;25.52;27.32
75972;BME280;64651;47.540;19.088;2023-12-04T15:28:47;101000.25;;;25.39;27.47
75972;BME280;64651;47.540;19.088;2023-12-04T15:33:52;100986.00;;;25.32;27.51
75972;BME280;64651;47.540;19.088;2023-12-04T15:38:55;100986.75;;;25.29;27.55
75972;BME280;64651;47.540;19.088;2023-12-04T15:43:57;100978.19;;;25.26;27.63
75972;BME280;64651;47.540;19.088;2023-12-04T15:48:59;100980.56;;;25.24;27.60
75972;BME280;64651;47.540;19.088;2023-12-04T15:54:02;100983.75;;;25.22;27.63
75972;BME280;64651;47.540;19.088;2023-12-04T15:59:04;100988.09;;;25.20;27.69
75972;BME280;64651;47.540;19.088;2023-12-04T16:04:06;100981.63;;;25.19;27.67
75972;BME280;64651;47.540;19.088;2023-12-04T16:09:09;100978.75;;;25.16;27.67
75972;BME280;64651;47.540;19.088;2023-12-04T16:14:15;100982.72;;;25.15;27.70
75972;BME280;64651;47.540;19.088;2023-12-04T16:19:17;100976.28;;;25.14;27.70
75972;BME280;64651;47.540;19.088;2023-12-04T16:24:20;100959.78;;;25.13;27.66
75972;BME280;64651;47.540;19.088;2023-12-04T16:29:24;100971.38;;;25.11;27.68
75972;BME280;64651;47.540;19.088;2023-12-04T16:34:29;100976.09;;;25.07;27.71
75972;BME280;64651;47.540;19.088;2023-12-04T16:39:32;100968.84;;;25.06;27.69
75972;BME280;64651;47.540;19.088;2023-12-04T16:44:34;100967.22;;;25.05;27.69
75972;BME280;64651;47.540;19.088;2023-12-04T16:49:37;100976.84;;;25.04;27.67
75972;BME280;64651;47.540;19.088;2023-12-04T16:54:40;100963.38;;;25.13;27.58
75972;BME280;64651;47.540;19.088;2023-12-04T16:59:42;100949.03;;;25.02;27.62
75972;BME280;64651;47.540;19.088;2023-12-04T17:04:44;100948.22;;;25.02;27.66
75972;BME280;64651;47.540;19.088;2023-12-04T17:09:46;100942.97;;;25.00;27.64
75972;BME280;64651;47.540;19.088;2023-12-04T17:14:49;100950.59;;;25.00;27.64
75972;BME280;64651;47.540;19.088;2023-12-04T17:19:51;100942.84;;;24.97;27.59
75972;BME280;64651;47.540;19.088;2023-12-04T17:24:53;100939.22;;;24.96;27.64
75972;BME280;64651;47.540;19.088;2023-12-04T17:29:56;100940.88;;;24.97;27.63
75972;BME280;64651;47.540;19.088;2023-12-04T17:34:58;100929.97;;;24.96;27.64
75972;BME280;64651;47.540;19.088;2023-12-04T17:40:00;100933.94;;;24.95;27.59
75972;BME280;64651;47.540;19.088;2023-12-04T17:45:04;100935.16;;;24.94;27.61
75972;BME280;64651;47.540;19.088;2023-12-04T17:50:07;100934.69;;;24.92;27.61
75972;BME280;64651;47.540;19.088;2023-12-04T17:55:11;100925.06;;;24.93;27.64
75972;BME280;64651;47.540;19.088;2023-12-04T18:00:14;100908.06;;;24.89;27.58
75972;BME280;64651;47.540;19.088;2023-12-04T18:05:17;100916.16;;;24.91;27.51
75972;BME280;64651;47.540;19.088;2023-12-04T18:10:21;100916.25;;;24.94;27.46
75972;BME280;64651;47.540;19.088;2023-12-04T18:15:24;100908.19;;;24.93;27.46
75972;BME280;64651;47.540;19.088;2023-12-04T18:20:26;100891.28;;;24.93;27.51
75972;BME280;64651;47.540;19.088;2023-12-04T18:25:29;100897.28;;;24.91;27.52
75972;BME280;64651;47.540;19.088;2023-12-04T18:30:31;100916.16;;;24.91;27.48
75972;BME280;64651;47.540;19.088;2023-12-04T18:35:34;100904.69;;;24.84;27.58
75972;BME280;64651;47.540;19.088;2023-12-04T18:40:37;100888.97;;;24.83;27.54
75972;BME280;64651;47.540;19.088;2023-12-04T18:45:39;100867.66;;;24.82;27.56
75972;BME280;64651;47.540;19.088;2023-12-04T18:50:42;100862.03;;;24.82;27.54
75972;BME280;64651;47.540;19.088;2023-12-04T18:55:44;100846.31;;;24.81;27.52
75972;BME280;64651;47.540;19.088;2023-12-04T19:00:46;100857.09;;;24.79;27.52
75972;BME280;64651;47.540;19.088;2023-12-04T19:05:49;100868.00;;;24.80;27.49
75972;BME280;64651;47.540;19.088;2023-12-04T19:10:51;100854.28;;;24.79;27.49
75972;BME280;64651;47.540;19.088;2023-12-04T19:15:53;100856.28;;;24.78;27.44
75972;BME280;64651;47.540;19.088;2023-12-04T19:20:55;100851.47;;;24.79;27.50
75972;BME280;64651;47.540;19.088;2023-12-04T19:25:58;100845.84;;;24.79;27.50
75972;BME280;64651;47.540;19.088;2023-12-04T19:31:00;100840.22;;;24.79;27.59
75972;BME280;64651;47.540;19.088;2023-12-04T19:36:06;100859.22;;;24.82;27.62
75972;BME280;64651;47.540;19.088;2023-12-04T19:41:08;100857.94;;;24.79;27.61
75972;BME280;64651;47.540;19.088;2023-12-04T19:46:10;100845.84;;;24.79;27.62
75972;BME280;64651;47.540;19.088;2023-12-04T19:51:12;100822.16;;;24.80;27.58
75972;BME280;64651;47.540;19.088;2023-12-04T19:56:15;100813.34;;;24.81;27.78
75972;BME280;64651;47.540;19.088;2023-12-04T20:01:24;100817.34;;;24.80;27.99
75972;BME280;64651;47.540;19.088;2023-12-04T20:06:27;100814.16;;;24.82;28.24
75972;BME280;64651;47.540;19.088;2023-12-04T20:11:29;100798.88;;;24.83;28.86
75972;BME280;64651;47.540;19.088;2023-12-04T20:16:31;100813.78;;;24.83;29.06
75972;BME280;64651;47.540;19.088;2023-12-04T20:21:34;100808.62;;;24.85;29.33
75972;BME280;64651;47.540;19.088;2023-12-04T20:26:36;100811.06;;;24.87;29.83
75972;BME280;64651;47.540;19.088;2023-12-04T20:31:38;100801.44;;;24.88;30.51
75972;BME280;64651;47.540;19.088;2023-12-04T20:36:40;100802.81;;;24.94;30.25
75972;BME280;64651;47.540;19.088;2023-12-04T20:41:43;100802.81;;;24.94;30.05
75972;BME280;64651;47.540;19.088;2023-12-04T20:46:45;100779.47;;;24.93;30.68
75972;BME280;64651;47.540;19.088;2023-12-04T20:51:51;100771.91;;;24.97;30.51
75972;BME280;64651;47.540;19.088;2023-12-04T20:56:54;100780.44;;;25.01;30.61
75972;BME280;64651;47.540;19.088;2023-12-04T21:01:56;100773.28;;;25.03;30.53
75972;BME280;64651;47.540;19.088;2023-12-04T21:06:58;100759.19;;;25.03;30.42
75972;BME280;64651;47.540;19.088;2023-12-04T21:12:09;100757.66;;;25.06;30.49
75972;BME280;64651;47.540;19.088;2023-12-04T21:17:12;100761.28;;;25.07;30.67
75972;BME280;64651;47.540;19.088;2023-12-04T21:22:14;100745.16;;;25.07;30.35
75972;BME280;64651;47.540;19.088;2023-12-04T21:27:16;100744.81;;;25.09;30.69
75972;BME280;64651;47.540;19.088;2023-12-04T21:32:19;100736.72;;;25.07;30.67
75972;BME280;64651;47.540;19.088;2023-12-04T21:37:21;100727.50;;;25.07;30.29
75972;BME280;64651;47.540;19.088;2023-12-04T21:42:24;100736.38;;;25.09;30.46
75972;BME280;64651;47.540;19.088;2023-12-04T21:47:26;100729.75;;;25.01;30.28
75972;BME280;64651;47.540;19.088;2023-12-04T21:52:30;100724.87;;;24.98;30.39
75972;BME280;64651;47.540;19.088;2023-12-04T21:57:33;100715.59;;;24.97;30.37
75972;BME280;64651;47.540;19.088;2023-12-04T22:02:35;100719.25;;;24.98;30.21
75972;BME280;64651;47.540;19.088;2023-12-04T22:07:38;100701.91;;;24.96;30.29
75972;BME280;64651;47.540;19.088;2023-12-04T22:12:40;100682.19;;;24.96;30.51
75972;BME280;64651;47.540;19.088;2023-12-04T22:17:42;100678.19;;;24.97;30.52
75972;BME280;64651;47.540;19.088;2023-12-04T22:22:44;100672.09;;;24.95;30.70
75972;BME280;64651;47.540;19.088;2023-12-04T22:27:46;100679.38;;;24.96;30.87
75972;BME280;64651;47.540;19.088;2023-12-04T22:32:49;100670.09;;;24.95;30.86
75972;BME280;64651;47.540;19.088;2023-12-04T22:37:51;100654.44;;;24.94;31.10
75972;BME280;64651;47.540;19.088;2023-12-04T22:42:53;100649.16;;;24.93;31.24
75972;BME280;64651;47.540;19.088;2023-12-04T22:47:56;100650.41;;;24.95;31.99
75972;BME280;64651;47.540;19.088;2023-12-04T22:52:58;100656.03;;;24.95;32.75
75972;BME280;64651;47.540;19.088;2023-12-04T22:58:10;100646.50;;;25.00;32.29
75972;BME280;64651;47.540;19.088;2023-12-04T23:03:12;100641.28;;;25.02;32.58
75972;BME280;64651;47.540;19.088;2023-12-04T23:08:15;100635.22;;;25.00;32.93
75972;BME280;64651;47.540;19.088;2023-12-04T23:13:19;100625.97;;;24.99;33.05
75972;BME280;64651;47.540;19.088;2023-12-04T23:18:22;100627.97;;;24.99;33.06
75972;BME280;64651;47.540;19.088;2023-12-04T23:23:24;100638.41;;;24.98;33.04
75972;BME280;64651;47.540;19.088;2023-12-04T23:28:27;100631.97;;;24.98;32.89
75972;BME280;64651;47.540;19.088;2023-12-04T23:33:29;100631.50;;;24.96;32.84
75972;BME280;64651;47.540;19.088;2023-12-04T23:38:32;100632.69;;;24.95;32.95
75972;BME280;64651;47.540;19.088;2023-12-04T23:43:34;100608.56;;;24.94;32.98
75972;BME280;64651;47.540;19.088;2023-12-04T23:48:36;100610.56;;;24.93;32.67
75972;BME280;64651;47.540;19.088;2023-12-04T23:53:40;100607.28;;;24.91;32.71
75972;BME280;64651;47.540;19.088;2023-12-04T23:58:42;100583.94;;;24.91;32.81
